createdAt,value
2023-05-12T00:01:17.552Z,78.00
2023-05-12T00:03:44.497Z,78.00
2023-05-12T00:06:12.341Z,78.00
2023-05-12T00:08:39.074Z,78.00
2023-05-12T00:11:05.786Z,78.00
2023-05-12T00:13:32.506Z,78.10
2023-05-12T00:15:59.505Z,78.00
2023-05-12T00:18:28.238Z,78.00
2023-05-12T00:20:55.581Z,78.10
2023-05-12T00:23:22.972Z,78.00
2023-05-12T00:25:50.549Z,78.00
2023-05-12T00:28:18.809Z,78.00
2023-05-12T00:30:46.057Z,78.10
2023-05-12T00:33:13.283Z,78.00
2023-05-12T00:35:40.280Z,78.00
2023-05-12T00:38:07.016Z,78.00
2023-05-12T00:40:33.969Z,78.00
2023-05-12T00:43:00.666Z,78.00
2023-05-12T00:45:29.688Z,78.00
2023-05-12T00:47:57.011Z,78.00
2023-05-12T00:50:24.111Z,78.00
2023-05-12T00:52:50.869Z,78.00
2023-05-12T00:55:18.023Z,78.10
2023-05-12T00:57:44.675Z,78.00
2023-05-12T01:00:12.654Z,78.00
2023-05-12T01:02:41.338Z,77.90
2023-05-12T01:05:09.893Z,77.90
2023-05-12T01:07:39.255Z,78.00
2023-05-12T01:10:18.259Z,77.90
2023-05-12T01:12:45.350Z,78.00
2023-05-12T01:15:12.937Z,77.90
2023-05-12T01:17:47.534Z,78.00
2023-05-12T01:20:18.846Z,78.00
2023-05-12T01:22:48.089Z,77.90
2023-05-12T01:25:17.176Z,77.90
2023-05-12T01:27:45.864Z,78.00
2023-05-12T01:30:18.930Z,78.00
2023-05-12T01:32:46.175Z,77.90
2023-05-12T01:35:13.015Z,78.00
2023-05-12T01:37:46.425Z,77.90
2023-05-12T01:40:13.505Z,77.90
2023-05-12T01:42:42.226Z,78.00
2023-05-12T01:45:10.894Z,77.90
2023-05-12T01:47:38.147Z,77.90
2023-05-12T01:50:09.424Z,77.90
2023-05-12T01:52:37.141Z,77.90
2023-05-12T01:55:08.117Z,77.90
2023-05-12T01:57:41.745Z,77.90
2023-05-12T02:00:09.362Z,77.90
2023-05-12T02:02:43.369Z,77.90
2023-05-12T02:05:12.589Z,77.90
2023-05-12T02:07:40.442Z,77.90
2023-05-12T02:10:08.471Z,77.80
2023-05-12T02:12:35.372Z,77.90
2023-05-12T02:15:02.048Z,77.80
2023-05-12T02:17:30.744Z,77.80
2023-05-12T02:20:00.890Z,77.80
2023-05-12T02:22:27.647Z,78.40
2023-05-12T02:24:54.418Z,77.80
2023-05-12T02:27:21.240Z,77.80
2023-05-12T02:29:48.001Z,77.80
2023-05-12T02:32:15.957Z,77.80
2023-05-12T02:34:46.025Z,77.70
2023-05-12T02:37:13.120Z,77.70
2023-05-12T02:39:40.193Z,77.70
2023-05-12T02:42:07.358Z,77.70
2023-05-12T02:44:34.027Z,77.70
2023-05-12T02:47:01.084Z,77.70
2023-05-12T02:49:28.318Z,78.30
2023-05-12T02:51:55.258Z,77.60
2023-05-12T02:54:21.973Z,77.70
2023-05-12T02:56:48.705Z,77.60
2023-05-12T02:59:15.580Z,77.50
2023-05-12T03:01:42.361Z,77.50
2023-05-12T03:04:09.259Z,77.50
2023-05-12T03:06:36.014Z,77.60
2023-05-12T03:09:02.823Z,77.50
2023-05-12T03:11:29.643Z,77.50
2023-05-12T03:13:56.357Z,77.50
2023-05-12T03:16:23.031Z,77.50
2023-05-12T03:18:50.247Z,77.50
2023-05-12T03:21:17.022Z,77.50
2023-05-12T03:23:43.684Z,77.50
2023-05-12T03:26:11.142Z,77.40
2023-05-12T03:28:38.238Z,78.10
2023-05-12T03:31:05.035Z,77.40
2023-05-12T03:33:31.789Z,77.40
2023-05-12T03:35:59.620Z,77.40
2023-05-12T03:38:26.531Z,77.40
2023-05-12T03:41:06.566Z,77.40
2023-05-12T03:43:34.622Z,77.40
2023-05-12T03:46:01.825Z,77.40
2023-05-12T03:48:28.962Z,77.30
2023-05-12T03:50:56.404Z,77.30
2023-05-12T03:53:23.145Z,77.30
2023-05-12T03:55:50.547Z,77.30
2023-05-12T03:58:17.437Z,77.30
2023-05-12T04:00:44.416Z,77.30
2023-05-12T04:03:11.266Z,77.30
2023-05-12T04:05:39.437Z,77.40
2023-05-12T04:08:06.227Z,77.30
2023-05-12T04:10:32.916Z,77.30
2023-05-12T04:12:59.592Z,77.30
2023-05-12T04:15:26.610Z,77.90
2023-05-12T04:17:53.378Z,77.30
2023-05-12T04:20:20.357Z,77.30
2023-05-12T04:22:47.635Z,77.30
2023-05-12T04:25:14.393Z,77.30
2023-05-12T04:27:41.187Z,77.20
2023-05-12T04:30:08.493Z,77.20
2023-05-12T04:32:37.465Z,77.30
2023-05-12T04:35:05.184Z,77.20
2023-05-12T04:37:31.946Z,77.30
2023-05-12T04:39:58.786Z,77.20
2023-05-12T04:42:25.699Z,77.90
2023-05-12T04:44:52.722Z,77.20
2023-05-12T04:47:19.569Z,77.30
2023-05-12T04:49:46.282Z,77.30
2023-05-12T04:52:14.739Z,77.30
2023-05-12T04:54:41.523Z,77.20
2023-05-12T04:57:08.499Z,77.20
2023-05-12T04:59:36.061Z,77.20
2023-05-12T05:02:02.920Z,77.20
2023-05-12T05:04:29.718Z,77.30
2023-05-12T05:06:56.522Z,77.20
2023-05-12T05:09:24.336Z,77.30
2023-05-12T05:11:51.128Z,77.20
2023-05-12T05:14:18.099Z,77.30
2023-05-12T05:16:45.727Z,77.30
2023-05-12T05:19:23.042Z,77.30
2023-05-12T05:21:56.947Z,77.30
2023-05-12T05:24:23.662Z,77.30
2023-05-12T05:26:50.371Z,77.20
2023-05-12T05:29:17.594Z,77.20
2023-05-12T05:31:44.440Z,77.30
2023-05-12T05:34:11.333Z,77.30
2023-05-12T05:36:38.063Z,77.30
2023-05-12T05:39:04.869Z,77.30
2023-05-12T05:41:31.616Z,77.30
2023-05-12T05:43:58.309Z,77.30
2023-05-12T05:46:25.153Z,77.30
2023-05-12T05:48:52.065Z,77.30
2023-05-12T05:51:19.401Z,77.30
2023-05-12T05:53:46.214Z,77.30
2023-05-12T05:56:14.349Z,77.30
2023-05-12T05:58:41.522Z,77.30
2023-05-12T06:01:08.282Z,77.40
2023-05-12T06:03:35.994Z,77.40
2023-05-12T06:06:02.862Z,77.40
2023-05-12T06:08:29.522Z,77.50
2023-05-12T06:10:56.308Z,77.50
2023-05-12T06:13:22.976Z,77.50
2023-05-12T06:15:49.643Z,77.50
2023-05-12T06:18:16.372Z,77.50
2023-05-12T06:20:43.240Z,77.50
2023-05-12T06:23:09.961Z,77.50
2023-05-12T06:25:36.630Z,77.50
2023-05-12T06:28:03.288Z,77.50
2023-05-12T06:30:30.030Z,77.50
2023-05-12T06:32:56.732Z,77.50
2023-05-12T06:35:23.434Z,77.60
2023-05-12T06:37:50.986Z,77.60
2023-05-12T06:40:17.773Z,77.60
2023-05-12T06:42:44.640Z,77.50
2023-05-12T06:45:15.848Z,77.60
2023-05-12T06:47:42.622Z,77.60
2023-05-12T06:50:09.597Z,77.50
2023-05-12T06:52:36.385Z,77.60
2023-05-12T06:55:03.405Z,77.60
2023-05-12T06:57:30.218Z,77.60
2023-05-12T06:59:56.875Z,77.70
2023-05-12T07:02:23.609Z,77.70
2023-05-12T07:04:50.297Z,77.60
2023-05-12T07:07:17.129Z,77.70
2023-05-12T07:09:45.191Z,77.70
2023-05-12T07:12:12.221Z,77.70
2023-05-12T07:14:38.871Z,77.70
2023-05-12T07:17:06.284Z,77.70
2023-05-12T07:19:33.017Z,77.70
2023-05-12T07:21:59.758Z,77.80
2023-05-12T07:24:27.774Z,77.80
2023-05-12T07:26:54.433Z,77.80
2023-05-12T07:29:22.423Z,77.70
2023-05-12T07:31:49.226Z,77.70
2023-05-12T07:34:15.963Z,77.70
2023-05-12T07:36:42.622Z,77.80
2023-05-12T07:39:09.309Z,77.70
2023-05-12T07:41:36.021Z,77.80
2023-05-12T07:44:02.842Z,77.90
2023-05-12T07:46:29.551Z,78.20
2023-05-12T07:48:56.417Z,77.80
2023-05-12T07:51:23.230Z,77.80
2023-05-12T07:53:49.865Z,77.90
2023-05-12T07:56:16.618Z,77.80
2023-05-12T07:58:44.121Z,77.90
2023-05-12T08:01:11.571Z,77.80
2023-05-12T08:03:38.609Z,77.80
2023-05-12T08:06:07.221Z,77.80
2023-05-12T08:08:34.914Z,78.40
2023-05-12T08:11:01.584Z,77.80
2023-05-12T08:13:28.320Z,77.80
2023-05-12T08:15:55.060Z,77.70
2023-05-12T08:18:21.936Z,77.70
2023-05-12T08:20:50.059Z,77.70
2023-05-12T08:23:17.484Z,77.70
2023-05-12T08:25:44.578Z,77.70
2023-05-12T08:28:12.745Z,77.70
2023-05-12T08:30:39.752Z,77.70
2023-05-12T08:33:06.574Z,77.70
2023-05-12T08:35:33.466Z,77.60
2023-05-12T08:38:01.267Z,77.70
2023-05-12T08:40:31.145Z,77.60
2023-05-12T08:43:19.808Z,77.60
2023-05-12T08:45:47.320Z,77.70
2023-05-12T08:48:15.724Z,77.60
2023-05-12T08:50:43.844Z,77.60
2023-05-12T08:53:12.298Z,77.60
2023-05-12T08:55:41.402Z,77.50
2023-05-12T08:58:09.684Z,78.10
2023-05-12T09:00:39.212Z,77.50
2023-05-12T09:03:07.831Z,77.50
2023-05-12T09:05:36.231Z,77.50
2023-05-12T09:08:03.394Z,77.50
2023-05-12T09:10:34.534Z,77.50
2023-05-12T09:13:19.569Z,77.50
2023-05-12T09:15:48.417Z,77.50
2023-05-12T09:18:15.275Z,77.50
2023-05-12T09:20:42.470Z,77.50
2023-05-12T09:23:16.653Z,77.50
2023-05-12T09:25:43.414Z,77.40
2023-05-12T09:28:10.643Z,77.50
2023-05-12T09:30:38.376Z,77.50
2023-05-12T09:33:09.670Z,77.50
2023-05-12T09:35:45.922Z,77.40
2023-05-12T09:38:13.347Z,77.40
2023-05-12T09:40:40.472Z,77.50
2023-05-12T09:43:08.302Z,77.40
2023-05-12T09:45:36.448Z,77.40
2023-05-12T09:48:13.714Z,77.40
2023-05-12T09:50:51.164Z,77.40
2023-05-12T09:53:19.277Z,77.50
2023-05-12T09:55:47.093Z,78.00
2023-05-12T09:58:16.447Z,77.40
2023-05-12T10:01:12.917Z,77.40
2023-05-12T10:03:33.395Z,77.50
2023-05-12T10:06:02.658Z,77.40
2023-05-12T10:08:42.196Z,77.50
2023-05-12T10:11:10.686Z,77.50
2023-05-12T10:13:39.167Z,77.50
2023-05-12T10:16:07.086Z,77.50
2023-05-12T10:18:34.796Z,77.40
2023-05-12T10:21:02.441Z,77.40
2023-05-12T10:23:29.969Z,77.50
2023-05-12T10:26:01.717Z,77.40
2023-05-12T10:28:29.499Z,77.50
2023-05-12T10:30:58.015Z,77.40
2023-05-12T10:33:25.167Z,77.40
2023-05-12T10:35:52.676Z,77.40
2023-05-12T10:38:22.304Z,77.40
2023-05-12T10:40:54.059Z,77.40
2023-05-12T10:43:25.618Z,77.40
2023-05-12T10:46:21.663Z,77.40
2023-05-12T10:49:12.413Z,77.30
2023-05-12T10:51:45.114Z,77.40
2023-05-12T10:54:24.372Z,77.40
2023-05-12T10:56:52.273Z,77.40
2023-05-12T10:59:21.577Z,77.50
2023-05-12T11:02:01.808Z,77.40
2023-05-12T11:04:42.774Z,77.50
2023-05-12T11:07:12.197Z,77.40
2023-05-12T11:09:56.818Z,77.40
2023-05-12T11:12:26.740Z,78.00
2023-05-12T11:14:53.529Z,77.40
2023-05-12T11:17:20.378Z,77.40
2023-05-12T11:19:48.823Z,77.50
2023-05-12T11:22:19.816Z,77.50
2023-05-12T11:24:47.857Z,77.50
2023-05-12T11:27:16.717Z,77.50
2023-05-12T11:29:45.029Z,77.50
2023-05-12T11:32:12.474Z,77.40
2023-05-12T11:34:39.536Z,77.40
2023-05-12T11:37:08.946Z,77.40
2023-05-12T11:39:36.505Z,77.40
2023-05-12T11:42:12.861Z,77.40
2023-05-12T11:44:49.535Z,77.40
2023-05-12T11:47:17.326Z,77.30
2023-05-12T11:49:52.316Z,77.30
2023-05-12T11:52:21.138Z,77.30
2023-05-12T11:54:52.535Z,77.40
2023-05-12T11:57:32.908Z,77.30
2023-05-12T12:00:01.993Z,77.40
2023-05-12T12:02:33.462Z,77.30
2023-05-12T12:05:00.508Z,77.30
2023-05-12T12:07:32.098Z,77.40
2023-05-12T12:10:10.083Z,77.40
2023-05-12T12:12:36.788Z,77.40
2023-05-12T12:15:03.782Z,77.40
2023-05-12T12:17:31.255Z,77.40
2023-05-12T12:19:58.626Z,77.40
2023-05-12T12:22:25.299Z,77.40
2023-05-12T12:24:51.997Z,77.40
2023-05-12T12:27:18.679Z,77.50
2023-05-12T12:29:45.344Z,77.50
2023-05-12T12:32:12.131Z,77.40
2023-05-12T12:34:38.804Z,77.40
2023-05-12T12:37:05.448Z,77.40
2023-05-12T12:39:32.116Z,77.40
2023-05-12T12:41:58.960Z,77.40
2023-05-12T12:44:25.624Z,77.40
2023-05-12T12:46:52.313Z,77.30
2023-05-12T12:49:19.023Z,77.30
2023-05-12T12:51:47.017Z,77.30
2023-05-12T12:54:14.749Z,77.30
2023-05-12T12:56:42.518Z,77.30
2023-05-12T12:59:09.218Z,77.30
2023-05-12T13:01:36.055Z,77.20
2023-05-12T13:04:02.794Z,77.20
2023-05-12T13:06:30.126Z,77.20
2023-05-12T13:08:57.096Z,77.20
2023-05-12T13:11:23.800Z,77.20
2023-05-12T13:13:50.619Z,77.20
2023-05-12T13:16:17.389Z,77.10
2023-05-12T13:18:45.650Z,77.10
2023-05-12T13:21:12.698Z,77.10
2023-05-12T13:23:39.391Z,77.10
2023-05-12T13:26:06.065Z,77.10
2023-05-12T13:28:32.971Z,77.20
2023-05-12T13:30:59.678Z,77.10
2023-05-12T13:33:26.379Z,77.20
2023-05-12T13:35:53.068Z,77.20
2023-05-12T13:38:19.846Z,77.30
2023-05-12T13:40:46.670Z,77.30
2023-05-12T13:43:13.440Z,77.30
2023-05-12T13:45:40.114Z,77.30
2023-05-12T13:48:06.968Z,77.40
2023-05-12T13:50:34.117Z,77.40
2023-05-12T13:53:00.996Z,77.40
2023-05-12T13:55:27.710Z,77.40
2023-05-12T13:57:54.435Z,77.40
2023-05-12T14:00:21.296Z,77.40
2023-05-12T14:02:48.041Z,77.50
2023-05-12T14:05:14.783Z,77.50
2023-05-12T14:07:42.553Z,77.50
2023-05-12T14:10:12.711Z,77.50
2023-05-12T14:12:41.178Z,77.50
2023-05-12T14:15:21.962Z,77.50
2023-05-12T14:17:55.259Z,77.50
2023-05-12T14:20:22.110Z,78.20
2023-05-12T14:22:48.829Z,77.60
2023-05-12T14:25:16.350Z,77.70
2023-05-12T14:27:43.212Z,77.60
2023-05-12T14:30:10.570Z,77.70
2023-05-12T14:32:37.284Z,77.70
2023-05-12T14:35:04.642Z,77.70
2023-05-12T14:37:32.654Z,77.80
2023-05-12T14:39:59.344Z,77.70
2023-05-12T14:42:29.218Z,77.80
2023-05-12T14:44:56.400Z,77.80
2023-05-12T14:47:23.224Z,77.80
2023-05-12T14:49:50.303Z,77.80
2023-05-12T14:52:17.041Z,77.80
2023-05-12T14:54:44.220Z,78.00
2023-05-12T14:57:11.675Z,78.00
2023-05-12T14:59:38.677Z,78.00
2023-05-12T15:02:05.761Z,77.90
2023-05-12T15:04:32.485Z,77.90
2023-05-12T15:06:59.168Z,77.90
2023-05-12T15:09:26.019Z,78.00
2023-05-12T15:11:52.765Z,78.10
2023-05-12T15:14:19.560Z,78.00
2023-05-12T15:16:46.509Z,78.10
2023-05-12T15:19:14.034Z,78.20
2023-05-12T15:21:41.014Z,78.10
2023-05-12T15:24:08.111Z,78.10
2023-05-12T15:26:36.723Z,78.10
2023-05-12T15:29:04.183Z,78.10
2023-05-12T15:31:31.337Z,78.10
2023-05-12T15:33:58.050Z,78.80
2023-05-12T15:36:24.750Z,78.10
2023-05-12T15:38:51.431Z,78.20
2023-05-12T15:41:18.147Z,78.20
2023-05-12T15:43:44.850Z,78.10
2023-05-12T15:46:11.840Z,78.30
2023-05-12T15:48:39.464Z,78.20
2023-05-12T15:51:06.906Z,78.20
2023-05-12T15:53:33.770Z,78.20
2023-05-12T15:56:01.752Z,78.20
2023-05-12T15:58:28.938Z,78.20
2023-05-12T16:00:56.185Z,78.20
2023-05-12T16:03:23.795Z,78.20
2023-05-12T16:05:50.827Z,78.20
2023-05-12T16:08:17.800Z,78.20
2023-05-12T16:10:44.618Z,78.20
2023-05-12T16:13:11.493Z,78.20
2023-05-12T16:15:38.222Z,78.20
2023-05-12T16:18:06.957Z,78.20
2023-05-12T16:20:35.355Z,78.20
2023-05-12T16:23:02.448Z,78.20
2023-05-12T16:25:29.182Z,78.80
2023-05-12T16:27:55.976Z,78.20
2023-05-12T16:30:22.756Z,78.20
2023-05-12T16:32:49.642Z,78.20
2023-05-12T16:35:16.502Z,78.10
2023-05-12T16:37:43.294Z,78.10
2023-05-12T16:40:10.530Z,78.20
2023-05-12T16:42:37.243Z,78.20
2023-05-12T16:45:04.155Z,78.10
2023-05-12T16:47:31.347Z,78.20
2023-05-12T16:49:59.159Z,78.30
2023-05-12T16:52:26.698Z,78.20
2023-05-12T16:54:55.516Z,78.30
2023-05-12T16:57:22.297Z,78.30
2023-05-12T16:59:49.368Z,78.40
2023-05-12T17:02:16.641Z,78.40
2023-05-12T17:04:43.504Z,78.30
2023-05-12T17:07:10.867Z,78.40
2023-05-12T17:09:37.856Z,78.40
2023-05-12T17:12:06.614Z,78.40
2023-05-12T17:14:34.753Z,78.40
2023-05-12T17:17:01.588Z,78.30
2023-05-12T17:19:28.472Z,78.40
2023-05-12T17:21:55.194Z,78.30
2023-05-12T17:24:21.950Z,78.30
2023-05-12T17:26:48.672Z,78.30
2023-05-12T17:29:15.375Z,78.20
2023-05-12T17:31:42.508Z,78.20
2023-05-12T17:34:09.282Z,78.20
2023-05-12T17:36:35.989Z,78.30
2023-05-12T17:39:02.851Z,78.30
2023-05-12T17:41:29.571Z,78.40
2023-05-12T17:43:56.744Z,78.40
2023-05-12T17:46:23.561Z,78.40
2023-05-12T17:48:50.547Z,78.30
2023-05-12T17:51:17.234Z,78.30
2023-05-12T17:53:44.074Z,78.30
2023-05-12T17:56:11.416Z,78.30
2023-05-12T17:58:38.109Z,78.30
2023-05-12T18:01:04.911Z,78.30
2023-05-12T18:03:31.648Z,78.40
2023-05-12T18:05:58.444Z,78.40
2023-05-12T18:08:26.208Z,79.00
2023-05-12T18:10:52.900Z,78.90
2023-05-12T18:13:19.842Z,78.20
2023-05-12T18:15:48.623Z,78.20
2023-05-12T18:18:15.334Z,78.20
2023-05-12T18:20:42.358Z,78.20
2023-05-12T18:23:09.329Z,78.20
2023-05-12T18:25:36.184Z,78.10
2023-05-12T18:28:02.917Z,78.10
2023-05-12T18:30:29.674Z,78.10
2023-05-12T18:32:56.528Z,78.10
2023-05-12T18:35:23.588Z,78.20
2023-05-12T18:37:50.619Z,78.10
2023-05-12T18:40:17.316Z,78.20
2023-05-12T18:42:44.092Z,78.10
2023-05-12T18:45:11.288Z,78.10
2023-05-12T18:47:38.765Z,78.10
2023-05-12T18:50:05.885Z,78.10
2023-05-12T18:52:32.596Z,78.10
2023-05-12T18:54:59.608Z,78.10
2023-05-12T18:57:26.698Z,78.10
2023-05-12T18:59:53.660Z,78.20
2023-05-12T19:02:20.717Z,78.10
2023-05-12T19:04:48.331Z,78.20
2023-05-12T19:07:15.769Z,78.20
2023-05-12T19:09:43.355Z,78.10
2023-05-12T19:12:13.432Z,78.10
2023-05-12T19:14:40.557Z,78.10
2023-05-12T19:17:07.655Z,78.10
2023-05-12T19:19:35.022Z,78.10
2023-05-12T19:22:02.122Z,78.10
2023-05-12T19:24:29.805Z,78.10
2023-05-12T19:26:57.427Z,78.00
2023-05-12T19:29:24.323Z,78.10
2023-05-12T19:31:52.848Z,78.10
2023-05-12T19:34:19.938Z,78.10
2023-05-12T19:36:46.827Z,78.10
2023-05-12T19:39:13.515Z,78.00
2023-05-12T19:41:40.936Z,78.10
2023-05-12T19:44:07.766Z,78.10
2023-05-12T19:46:35.825Z,78.10
2023-05-12T19:49:02.503Z,78.10
2023-05-12T19:51:29.284Z,78.10
2023-05-12T19:53:55.952Z,78.00
2023-05-12T19:56:22.626Z,78.00
2023-05-12T19:58:49.718Z,78.10
2023-05-12T20:01:16.481Z,78.00
2023-05-12T20:03:43.226Z,78.00
2023-05-12T20:06:10.788Z,78.10
2023-05-12T20:08:37.751Z,78.00
2023-05-12T20:11:04.477Z,78.00
2023-05-12T20:13:31.682Z,78.00
2023-05-12T20:15:58.574Z,77.90
2023-05-12T20:18:25.478Z,78.10
2023-05-12T20:20:52.126Z,77.90
2023-05-12T20:23:18.816Z,77.70
2023-05-12T20:25:45.766Z,77.80
2023-05-12T20:28:13.028Z,77.80
2023-05-12T20:30:39.717Z,77.80
2023-05-12T20:33:06.473Z,77.80
2023-05-12T20:35:33.229Z,77.70
2023-05-12T20:37:59.926Z,77.70
2023-05-12T20:40:26.739Z,77.70
2023-05-12T20:42:53.462Z,77.60
2023-05-12T20:45:20.709Z,77.70
2023-05-12T20:47:47.558Z,77.60
2023-05-12T20:50:14.269Z,77.70
2023-05-12T20:52:41.720Z,77.60
2023-05-12T20:55:09.635Z,77.60
2023-05-12T20:57:37.579Z,77.60
2023-05-12T21:00:04.637Z,77.60
2023-05-12T21:02:31.499Z,77.50
2023-05-12T21:04:58.250Z,77.50
2023-05-12T21:07:24.939Z,77.50
2023-05-12T21:09:51.968Z,77.50
2023-05-12T21:12:18.665Z,77.50
2023-05-12T21:14:45.361Z,77.50
2023-05-12T21:17:12.906Z,77.50
2023-05-12T21:19:40.860Z,77.50
2023-05-12T21:22:08.969Z,77.40
2023-05-12T21:24:37.335Z,77.50
2023-05-12T21:27:05.405Z,77.40
2023-05-12T21:29:33.173Z,77.40
2023-05-12T21:32:00.515Z,77.40
2023-05-12T21:34:27.584Z,77.40
2023-05-12T21:36:54.769Z,77.50
2023-05-12T21:39:21.915Z,77.40
2023-05-12T21:41:48.966Z,77.40
2023-05-12T21:44:16.148Z,77.30
2023-05-12T21:46:43.177Z,77.30
2023-05-12T21:49:10.233Z,77.30
2023-05-12T21:51:36.983Z,77.40
2023-05-12T21:54:03.844Z,77.40
2023-05-12T21:56:30.531Z,77.30
2023-05-12T21:58:57.272Z,77.20
2023-05-12T22:01:24.022Z,77.30
2023-05-12T22:03:51.194Z,77.30
2023-05-12T22:06:18.010Z,77.30
2023-05-12T22:08:44.647Z,77.20
2023-05-12T22:11:11.415Z,77.30
2023-05-12T22:13:38.245Z,77.20
2023-05-12T22:16:05.304Z,77.20
2023-05-12T22:18:33.180Z,77.10
2023-05-12T22:20:59.940Z,77.20
2023-05-12T22:23:26.730Z,77.20
2023-05-12T22:25:53.577Z,77.10
2023-05-12T22:28:20.288Z,77.10
2023-05-12T22:30:46.973Z,77.10
2023-05-12T22:33:13.609Z,77.20
2023-05-12T22:35:40.263Z,77.20
2023-05-12T22:38:07.034Z,77.10
2023-05-12T22:40:33.828Z,77.00
2023-05-12T22:43:00.586Z,77.00
2023-05-12T22:45:27.439Z,77.00
2023-05-12T22:47:54.582Z,77.00
2023-05-12T22:50:21.683Z,77.10
2023-05-12T22:52:48.718Z,77.00
2023-05-12T22:55:15.431Z,77.00
2023-05-12T22:57:43.701Z,77.00
2023-05-12T23:00:11.517Z,76.90
2023-05-12T23:02:38.326Z,76.90
2023-05-12T23:05:05.543Z,76.90
2023-05-12T23:07:32.312Z,76.90
2023-05-12T23:09:59.013Z,76.90
2023-05-12T23:12:25.915Z,76.80
2023-05-12T23:14:52.664Z,76.80
2023-05-12T23:17:20.753Z,76.80
2023-05-12T23:19:47.498Z,76.80
2023-05-12T23:22:14.156Z,76.80
2023-05-12T23:24:40.988Z,76.80
2023-05-12T23:27:07.855Z,76.70
2023-05-12T23:29:34.560Z,76.80
2023-05-12T23:32:01.499Z,76.70
2023-05-12T23:34:28.362Z,76.80
2023-05-12T23:36:55.097Z,76.70
2023-05-12T23:39:22.210Z,76.70
2023-05-12T23:41:49.565Z,76.80
2023-05-12T23:44:16.376Z,76.80
2023-05-12T23:46:43.284Z,76.70
2023-05-12T23:49:10.254Z,76.70
2023-05-12T23:51:36.957Z,76.70
2023-05-12T23:54:03.712Z,76.70
2023-05-12T23:56:30.422Z,76.70
2023-05-12T23:58:57.110Z,76.70
